createdAt,value
2017-04-12T00:00:50.395Z,87.10
2017-04-12T00:01:50.730Z,87.20
2017-04-12T00:02:50.678Z,87.40
2017-04-12T00:03:50.563Z,87.50
2017-04-12T00:04:50.465Z,87.50
2017-04-12T00:05:50.472Z,87.60
2017-04-12T00:06:51.458Z,87.80
2017-04-12T00:07:51.403Z,87.80
2017-04-12T00:08:51.329Z,87.90
2017-04-12T00:09:51.325Z,87.80
2017-04-12T00:10:51.316Z,87.90
2017-04-12T00:11:52.482Z,88.00
2017-04-12T00:12:52.451Z,88.00
2017-04-12T00:13:52.458Z,88.00
2017-04-12T00:14:53.212Z,88.00
2017-04-12T00:15:53.156Z,88.00
2017-04-12T00:16:53.399Z,88.00
2017-04-12T00:17:54.227Z,87.90
2017-04-12T00:18:54.988Z,87.90
2017-04-12T00:19:54.985Z,87.90
2017-04-12T00:20:55.049Z,88.00
2017-04-12T00:21:55.174Z,88.00
2017-04-12T00:22:55.157Z,88.10
2017-04-12T00:23:55.113Z,88.00
2017-04-12T00:24:55.065Z,88.00
2017-04-12T00:25:55.072Z,88.00
2017-04-12T00:26:55.434Z,88.10
2017-04-12T00:27:55.381Z,88.00
2017-04-12T00:28:55.292Z,88.00
2017-04-12T00:29:55.260Z,88.00
2017-04-12T00:30:55.304Z,88.00
2017-04-12T00:31:55.604Z,88.10
2017-04-12T00:32:55.566Z,88.20
2017-04-12T00:33:55.532Z,88.30
2017-04-12T00:34:55.940Z,88.30
2017-04-12T00:35:55.948Z,88.30
2017-04-12T00:36:56.249Z,88.40
2017-04-12T00:37:56.216Z,88.50
2017-04-12T00:38:56.126Z,88.60
2017-04-12T00:39:56.092Z,88.70
2017-04-12T00:40:56.798Z,88.80
2017-04-12T00:41:57.120Z,88.90
2017-04-12T00:42:57.053Z,88.90
2017-04-12T00:43:56.956Z,89.40
2017-04-12T00:44:56.885Z,89.30
2017-04-12T00:45:56.857Z,89.40
2017-04-12T00:46:57.243Z,89.50
2017-04-12T00:47:57.557Z,90.00
2017-04-12T00:48:57.497Z,89.60
2017-04-12T00:49:57.419Z,89.60
2017-04-12T00:50:57.452Z,89.60
2017-04-12T00:51:57.692Z,89.60
2017-04-12T00:52:57.616Z,89.50
2017-04-12T00:53:57.550Z,89.50
2017-04-12T00:54:57.607Z,89.50
2017-04-12T00:55:57.527Z,89.60
2017-04-12T00:56:58.528Z,89.70
2017-04-12T00:57:58.473Z,89.70
2017-04-12T00:58:58.507Z,89.70
2017-04-12T00:59:58.509Z,89.60
2017-04-12T01:00:58.521Z,89.60
2017-04-12T01:01:59.289Z,89.60
2017-04-12T01:02:59.413Z,89.50
2017-04-12T01:03:59.355Z,89.50
2017-04-12T01:04:59.294Z,89.40
2017-04-12T01:05:59.233Z,89.50
2017-04-12T01:06:59.336Z,89.50
2017-04-12T01:07:59.295Z,89.50
2017-04-12T01:08:59.228Z,89.50
2017-04-12T01:09:59.263Z,89.60
2017-04-12T01:10:59.309Z,89.90
2017-04-12T01:12:00.458Z,89.60
2017-04-12T01:13:00.460Z,89.60
2017-04-12T01:14:00.420Z,89.50
2017-04-12T01:15:00.488Z,89.60
2017-04-12T01:16:00.481Z,89.50
2017-04-12T01:17:00.726Z,89.50
2017-04-12T01:18:01.434Z,89.50
2017-04-12T01:19:01.636Z,89.40
2017-04-12T01:20:01.649Z,89.40
2017-04-12T01:21:01.582Z,89.30
2017-04-12T01:22:01.903Z,89.00
2017-04-12T01:23:01.885Z,89.20
2017-04-12T01:24:02.595Z,89.30
2017-04-12T01:25:02.562Z,89.20
2017-04-12T01:26:02.670Z,89.20
2017-04-12T01:27:02.907Z,89.20
2017-04-12T01:28:02.852Z,89.30
2017-04-12T01:29:02.891Z,90.00
2017-04-12T01:30:02.879Z,89.40
2017-04-12T01:31:02.877Z,89.30
2017-04-12T01:32:03.126Z,89.30
2017-04-12T01:33:02.881Z,89.30
2017-04-12T01:34:02.836Z,89.40
2017-04-12T01:35:02.831Z,89.40
2017-04-12T01:36:02.834Z,89.50
2017-04-12T01:37:03.272Z,89.50
2017-04-12T01:38:04.069Z,89.60
2017-04-12T01:39:04.419Z,89.80
2017-04-12T01:40:04.840Z,90.00
2017-04-12T01:41:04.909Z,90.10
2017-04-12T01:42:05.258Z,90.20
2017-04-12T01:43:05.228Z,90.30
2017-04-12T01:44:05.296Z,90.40
2017-04-12T01:45:06.003Z,90.50
2017-04-12T01:46:05.966Z,90.60
2017-04-12T01:47:06.297Z,90.60
2017-04-12T01:48:06.356Z,90.60
2017-04-12T01:49:06.312Z,90.70
2017-04-12T01:50:06.267Z,90.70
2017-04-12T01:51:06.361Z,90.70
2017-04-12T01:52:06.882Z,90.70
2017-04-12T01:53:06.886Z,90.70
2017-04-12T01:54:07.582Z,90.80
2017-04-12T01:56:38.069Z,90.80
2017-04-12T01:57:37.869Z,90.80
2017-04-12T01:58:37.661Z,90.80
2017-04-12T01:59:37.756Z,90.90
2017-04-12T02:00:37.715Z,90.90
2017-04-12T02:01:37.691Z,90.90
2017-04-12T02:02:37.987Z,90.90
2017-04-12T02:03:38.023Z,90.90
2017-04-12T02:04:38.034Z,90.90
2017-04-12T02:05:38.035Z,90.90
2017-04-12T02:06:37.991Z,90.90
2017-04-12T02:07:38.368Z,90.90
2017-04-12T02:08:38.213Z,90.90
2017-04-12T02:09:38.012Z,90.90
2017-04-12T02:10:38.764Z,90.90
2017-04-12T02:11:38.527Z,90.90
2017-04-12T02:12:38.796Z,90.90
2017-04-12T02:13:38.776Z,91.00
2017-04-12T02:14:38.458Z,91.00
2017-04-12T02:15:38.417Z,91.10
2017-04-12T02:16:38.392Z,91.10
2017-04-12T02:17:38.465Z,91.10
2017-04-12T02:18:38.968Z,91.10
2017-04-12T02:19:39.034Z,91.10
2017-04-12T02:20:39.239Z,91.10
2017-04-12T02:21:39.268Z,91.10
2017-04-12T02:22:39.217Z,91.10
2017-04-12T02:23:40.344Z,91.10
2017-04-12T02:24:41.009Z,91.00
2017-04-12T02:25:40.971Z,91.00
2017-04-12T02:26:41.717Z,91.00
2017-04-12T02:27:41.695Z,91.00
2017-04-12T02:28:41.983Z,91.00
2017-04-12T02:29:41.940Z,91.00
2017-04-12T02:30:41.922Z,91.00
2017-04-12T02:31:41.855Z,91.00
2017-04-12T02:32:41.797Z,91.10
2017-04-12T02:33:42.043Z,91.00
2017-04-12T02:34:42.471Z,91.00
2017-04-12T02:35:42.186Z,91.00
2017-04-12T02:36:42.229Z,91.00
2017-04-12T02:37:42.236Z,91.00
2017-04-12T02:38:42.476Z,91.10
2017-04-12T02:39:43.225Z,91.10
2017-04-12T02:40:43.188Z,91.10
2017-04-12T02:41:43.157Z,91.10
2017-04-12T02:42:43.109Z,91.10
2017-04-12T02:43:43.398Z,91.10
2017-04-12T02:44:43.339Z,91.10
2017-04-12T02:45:43.364Z,91.20
2017-04-12T02:46:43.456Z,91.20
2017-04-12T02:47:44.166Z,91.20
2017-04-12T02:48:45.214Z,91.20
2017-04-12T02:49:45.169Z,91.20
2017-04-12T02:50:44.906Z,91.50
2017-04-12T02:51:44.815Z,91.20
2017-04-12T02:52:45.581Z,91.20
2017-04-12T02:53:45.829Z,91.20
2017-04-12T02:54:45.854Z,91.20
2017-04-12T02:55:45.851Z,91.20
2017-04-12T02:56:45.848Z,91.30
2017-04-12T02:57:45.826Z,91.30
2017-04-12T02:58:46.253Z,91.30
2017-04-12T02:59:46.211Z,91.30
2017-04-12T03:00:46.208Z,91.30
2017-04-12T03:01:46.130Z,91.60
2017-04-12T03:02:46.121Z,91.30
2017-04-12T03:03:46.390Z,91.30
2017-04-12T03:04:46.392Z,91.30
2017-04-12T03:05:46.440Z,91.30
2017-04-12T03:06:46.350Z,91.30
2017-04-12T03:07:46.349Z,91.50
2017-04-12T03:08:46.645Z,91.30
2017-04-12T03:09:46.599Z,91.40
2017-04-12T03:10:46.529Z,91.30
2017-04-12T03:11:46.226Z,91.40
2017-04-12T03:12:46.167Z,91.30
2017-04-12T03:13:46.466Z,91.30
2017-04-12T03:14:46.414Z,91.30
2017-04-12T03:15:46.382Z,91.40
2017-04-12T03:16:46.415Z,91.40
2017-04-12T03:17:46.358Z,91.40
2017-04-12T03:18:46.704Z,91.50
2017-04-12T03:19:46.670Z,91.40
2017-04-12T03:20:46.694Z,91.40
2017-04-12T03:21:46.644Z,91.40
2017-04-12T03:22:46.618Z,91.40
2017-04-12T03:23:46.597Z,91.40
2017-04-12T03:24:46.916Z,91.40
2017-04-12T03:25:46.922Z,91.40
2017-04-12T03:26:46.888Z,91.30
2017-04-12T03:27:46.831Z,91.30
2017-04-12T03:28:46.813Z,91.30
2017-04-12T03:29:47.088Z,91.20
2017-04-12T03:30:47.818Z,91.20
2017-04-12T03:31:48.528Z,91.20
2017-04-12T03:32:48.535Z,91.10
2017-04-12T03:33:48.465Z,91.20
2017-04-12T03:34:48.725Z,91.20
2017-04-12T03:35:48.653Z,91.20
2017-04-12T03:36:48.687Z,91.20
2017-04-12T03:37:48.678Z,91.20
2017-04-12T03:38:48.617Z,91.20
2017-04-12T03:39:48.601Z,91.20
2017-04-12T03:40:48.966Z,91.20
2017-04-12T03:41:48.917Z,91.20
2017-04-12T03:42:48.987Z,91.50
2017-04-12T03:43:48.924Z,91.10
2017-04-12T03:44:48.931Z,91.10
2017-04-12T03:45:49.198Z,91.50
2017-04-12T03:46:49.195Z,91.10
2017-04-12T03:47:49.894Z,91.20
2017-04-12T03:48:49.802Z,91.20
2017-04-12T03:49:49.762Z,91.20
2017-04-12T03:50:50.872Z,91.30
2017-04-12T03:51:50.816Z,91.30
2017-04-12T03:52:50.739Z,91.30
2017-04-12T03:53:50.717Z,91.30
2017-04-12T03:54:51.440Z,91.30
2017-04-12T03:55:52.067Z,91.30
2017-04-12T03:56:52.583Z,91.30
2017-04-12T03:57:52.462Z,91.40
2017-04-12T03:58:52.458Z,91.60
2017-04-12T03:59:52.457Z,91.30
2017-04-12T04:00:52.716Z,91.30
2017-04-12T04:01:52.756Z,91.30
2017-04-12T04:02:52.719Z,91.30
2017-04-12T04:03:53.415Z,91.30
2017-04-12T04:04:53.342Z,91.30
2017-04-12T04:05:54.450Z,91.30
2017-04-12T04:06:54.392Z,91.30
2017-04-12T04:07:54.374Z,91.30
2017-04-12T04:08:54.504Z,91.30
2017-04-12T04:09:54.298Z,91.40
2017-04-12T04:10:55.364Z,91.40
2017-04-12T04:11:55.318Z,91.40
2017-04-12T04:12:55.282Z,91.40
2017-04-12T04:13:55.223Z,91.40
2017-04-12T04:14:55.155Z,91.40
2017-04-12T04:15:55.662Z,91.30
2017-04-12T04:16:56.361Z,91.30
2017-04-12T04:17:56.366Z,91.30
2017-04-12T04:18:56.048Z,91.30
2017-04-12T04:19:56.109Z,91.30
2017-04-12T04:20:56.480Z,91.40
2017-04-12T04:21:56.460Z,91.40
2017-04-12T04:22:56.386Z,91.40
2017-04-12T04:23:56.360Z,91.50
2017-04-12T04:24:56.344Z,91.60
2017-04-12T04:25:56.321Z,91.50
2017-04-12T04:26:56.234Z,91.60
2017-04-12T04:27:56.894Z,91.60
2017-04-12T04:28:56.710Z,91.60
2017-04-12T04:29:56.710Z,91.70
2017-04-12T04:30:57.039Z,91.70
2017-04-12T04:31:56.787Z,91.80
2017-04-12T04:32:57.461Z,91.80
2017-04-12T04:33:57.436Z,91.80
2017-04-12T04:34:57.429Z,91.80
2017-04-12T04:35:57.698Z,91.90
2017-04-12T04:36:57.684Z,91.90
2017-04-12T04:37:57.640Z,91.90
2017-04-12T04:38:58.335Z,91.80
2017-04-12T04:39:58.474Z,91.80
2017-04-12T04:40:58.873Z,91.80
2017-04-12T04:41:58.991Z,91.80
2017-04-12T04:42:59.735Z,91.90
2017-04-12T04:43:59.786Z,91.90
2017-04-12T04:44:59.780Z,92.00
2017-04-12T04:46:00.135Z,92.00
2017-04-12T04:47:00.871Z,92.00
2017-04-12T04:48:01.607Z,92.00
2017-04-12T04:49:01.619Z,92.10
2017-04-12T04:50:01.545Z,92.10
2017-04-12T04:51:01.921Z,92.10
2017-04-12T04:52:01.860Z,92.10
2017-04-12T04:53:05.811Z,92.20
2017-04-12T04:54:05.793Z,92.20
2017-04-12T04:55:05.775Z,92.20
2017-04-12T04:56:06.071Z,92.20
2017-04-12T04:57:06.025Z,92.20
2017-04-12T04:58:05.981Z,92.20
2017-04-12T04:59:05.961Z,92.20
2017-04-12T05:00:06.586Z,92.10
2017-04-12T05:01:06.864Z,92.20
2017-04-12T05:02:06.773Z,92.20
2017-04-12T05:03:06.846Z,92.20
2017-04-12T05:04:06.831Z,92.20
2017-04-12T05:05:06.518Z,92.20
2017-04-12T05:06:06.907Z,92.20
2017-04-12T05:07:06.852Z,92.20
2017-04-12T05:08:06.887Z,92.10
2017-04-12T05:09:06.847Z,92.10
2017-04-12T05:10:06.866Z,92.10
2017-04-12T05:11:07.234Z,92.10
2017-04-12T05:12:07.151Z,92.00
2017-04-12T05:13:07.108Z,92.00
2017-04-12T05:14:07.101Z,92.00
2017-04-12T05:15:07.080Z,92.10
2017-04-12T05:16:07.575Z,92.10
2017-04-12T05:17:07.489Z,92.20
2017-04-12T05:18:07.405Z,92.20
2017-04-12T05:19:08.067Z,92.30
2017-04-12T05:20:08.289Z,92.30
2017-04-12T05:21:08.629Z,92.40
2017-04-12T05:22:08.591Z,92.40
2017-04-12T05:23:08.620Z,92.50
2017-04-12T05:24:08.577Z,92.50
2017-04-12T05:25:09.359Z,92.50
2017-04-12T05:26:09.674Z,92.80
2017-04-12T05:27:09.711Z,92.90
2017-04-12T05:28:10.233Z,93.10
2017-04-12T05:29:10.177Z,93.10
2017-04-12T05:30:10.144Z,92.90
2017-04-12T05:31:11.257Z,92.70
2017-04-12T05:32:11.335Z,92.70
2017-04-12T05:33:11.274Z,92.80
2017-04-12T05:34:11.005Z,92.80
2017-04-12T05:35:11.081Z,94.30
2017-04-12T05:36:11.373Z,95.50
2017-04-12T05:37:11.352Z,96.20
2017-04-12T05:38:11.311Z,96.50
2017-04-12T05:39:11.284Z,96.40
2017-04-12T05:40:11.969Z,95.80
2017-04-12T05:41:12.259Z,95.10
2017-04-12T05:42:12.686Z,94.40
2017-04-12T05:43:12.732Z,93.60
2017-04-12T05:44:12.691Z,93.10
2017-04-12T05:45:12.676Z,92.60
2017-04-12T05:46:13.707Z,92.20
2017-04-12T05:47:14.415Z,92.10
2017-04-12T05:48:14.365Z,91.80
2017-04-12T05:49:14.326Z,91.60
2017-04-12T05:50:14.269Z,91.50
2017-04-12T05:51:14.530Z,91.40
2017-04-12T05:52:14.495Z,91.30
2017-04-12T05:53:14.485Z,91.20
2017-04-12T05:54:14.599Z,91.40
2017-04-12T05:55:14.582Z,91.00
2017-04-12T05:56:14.876Z,91.70
2017-04-12T05:57:14.901Z,91.70
2017-04-12T05:58:14.912Z,91.30
2017-04-12T05:59:15.682Z,91.10
2017-04-12T06:00:15.655Z,90.80
2017-04-12T06:01:17.978Z,90.60
2017-04-12T06:02:17.917Z,90.20
2017-04-12T06:03:17.839Z,89.80
2017-04-12T06:04:17.828Z,89.40
2017-04-12T06:05:17.834Z,88.90
2017-04-12T06:06:18.214Z,88.20
2017-04-12T06:07:18.256Z,88.10
2017-04-12T06:08:18.226Z,87.90
2017-04-12T06:09:18.264Z,87.60
2017-04-12T06:10:18.133Z,87.20
2017-04-12T06:11:18.543Z,86.60
2017-04-12T06:12:18.491Z,86.20
2017-04-12T06:13:18.471Z,85.90
2017-04-12T06:14:18.412Z,85.70
2017-04-12T06:15:20.539Z,85.40
2017-04-12T06:16:21.044Z,84.20
2017-04-12T06:17:21.470Z,83.50
2017-04-12T06:18:21.485Z,83.30
2017-04-12T06:19:21.507Z,83.30
2017-04-12T06:20:21.540Z,84.80
2017-04-12T06:21:21.661Z,84.20
2017-04-12T06:22:21.628Z,84.10
2017-04-12T06:23:21.666Z,84.00
2017-04-12T06:24:21.711Z,83.80
2017-04-12T06:25:21.621Z,83.60
2017-04-12T06:26:21.851Z,84.20
2017-04-12T06:27:21.842Z,83.70
2017-04-12T06:28:21.824Z,83.90
2017-04-12T06:29:21.797Z,84.00
2017-04-12T06:30:21.852Z,84.10
2017-04-12T06:31:22.143Z,84.20
2017-04-12T06:32:22.786Z,84.20
2017-04-12T06:33:22.701Z,84.20
2017-04-12T06:34:23.409Z,84.30
2017-04-12T06:35:23.347Z,84.10
2017-04-12T06:36:23.931Z,84.00
2017-04-12T06:37:23.934Z,84.20
2017-04-12T06:38:24.063Z,84.10
2017-04-12T06:39:24.759Z,84.00
2017-04-12T06:40:24.750Z,83.90
2017-04-12T06:41:25.076Z,83.90
2017-04-12T06:42:25.038Z,83.90
2017-04-12T06:43:25.028Z,83.90
2017-04-12T06:44:25.026Z,84.30
2017-04-12T06:45:25.755Z,85.00
2017-04-12T06:46:26.068Z,84.80
2017-04-12T06:47:26.070Z,85.20
2017-04-12T06:48:27.705Z,85.90
2017-04-12T06:49:28.572Z,86.50
2017-04-12T06:50:28.707Z,86.90
2017-04-12T06:51:29.112Z,87.30
2017-04-12T06:52:28.855Z,87.60
2017-04-12T06:53:28.873Z,88.50
2017-04-12T06:54:29.632Z,88.00
2017-04-12T06:55:29.707Z,88.20
2017-04-12T06:56:29.977Z,88.40
2017-04-12T06:57:30.049Z,88.60
2017-04-12T06:58:30.106Z,88.70
2017-04-12T06:59:30.022Z,88.80
2017-04-12T07:00:30.023Z,88.90
2017-04-12T07:01:30.431Z,89.10
2017-04-12T07:02:30.433Z,89.20
2017-04-12T07:03:30.263Z,89.20
2017-04-12T07:04:30.751Z,89.30
2017-04-12T07:05:31.491Z,89.30
2017-04-12T07:06:31.811Z,89.30
2017-04-12T07:07:31.860Z,89.40
2017-04-12T07:08:31.868Z,89.50
2017-04-12T07:09:31.834Z,89.60
2017-04-12T07:10:32.546Z,89.80
2017-04-12T07:11:32.990Z,89.90
2017-04-12T07:12:33.166Z,89.80
2017-04-12T07:13:33.108Z,89.80
2017-04-12T07:14:33.360Z,89.70
2017-04-12T07:15:33.354Z,89.60
2017-04-12T07:16:33.690Z,89.60
2017-04-12T07:17:35.332Z,89.50
2017-04-12T07:18:35.347Z,89.40
2017-04-12T07:19:35.354Z,89.50
2017-04-12T07:20:35.389Z,89.30
2017-04-12T07:21:35.690Z,89.40
2017-04-12T07:22:35.540Z,89.20
2017-04-12T07:23:35.600Z,88.90
2017-04-12T07:24:35.764Z,88.60
2017-04-12T07:25:35.744Z,88.30
2017-04-12T07:26:36.306Z,88.30
2017-04-12T07:27:36.145Z,88.10
2017-04-12T07:28:36.911Z,88.10
2017-04-12T07:29:36.929Z,88.00
2017-04-12T07:30:36.984Z,87.90
2017-04-12T07:31:37.465Z,87.90
2017-04-12T07:32:37.570Z,87.80
2017-04-12T07:33:37.698Z,87.50
2017-04-12T07:34:38.415Z,87.00
2017-04-12T07:35:38.136Z,87.20
2017-04-12T07:36:38.522Z,86.00
2017-04-12T07:37:38.495Z,85.70
2017-04-12T07:38:38.959Z,85.30
2017-04-12T07:39:38.957Z,85.30
2017-04-12T07:40:39.029Z,85.50
2017-04-12T07:41:39.370Z,85.50
2017-04-12T07:42:39.395Z,85.30
2017-04-12T07:43:40.079Z,85.50
2017-04-12T07:44:40.082Z,85.20
2017-04-12T07:45:40.180Z,85.10
2017-04-12T07:46:40.523Z,85.00
2017-04-12T07:47:40.230Z,84.90
2017-04-12T07:48:40.141Z,84.90
2017-04-12T07:49:40.170Z,84.50
2017-04-12T07:50:40.690Z,84.60
2017-04-12T07:51:41.079Z,85.00
2017-04-12T07:52:41.164Z,85.00
2017-04-12T07:53:41.360Z,84.50
2017-04-12T07:54:41.422Z,83.20
2017-04-12T07:55:41.421Z,82.10
2017-04-12T07:56:41.953Z,81.30
2017-04-12T07:57:46.462Z,80.70
2017-04-12T07:58:46.499Z,80.30
2017-04-12T07:59:46.457Z,79.90
2017-04-12T08:00:46.449Z,79.70
2017-04-12T08:01:46.868Z,79.70
2017-04-12T08:02:46.934Z,79.60
2017-04-12T08:03:46.677Z,79.30
2017-04-12T08:04:47.446Z,80.00
2017-04-12T08:05:47.389Z,79.90
2017-04-12T08:06:47.848Z,79.70
2017-04-12T08:07:47.881Z,79.40
2017-04-12T08:08:48.746Z,79.20
2017-04-12T08:09:49.366Z,79.40
2017-04-12T08:10:49.435Z,79.10
2017-04-12T08:11:49.803Z,78.00
2017-04-12T08:12:49.779Z,78.20
2017-04-12T08:13:49.773Z,78.10
2017-04-12T08:14:49.946Z,77.70
2017-04-12T08:15:49.980Z,77.10
2017-04-12T08:16:50.343Z,76.80
2017-04-12T08:17:50.088Z,76.50
2017-04-12T08:18:50.093Z,76.30
2017-04-12T08:19:50.067Z,76.10
2017-04-12T08:20:50.097Z,76.10
2017-04-12T08:21:50.091Z,76.20
2017-04-12T08:22:50.484Z,75.90
2017-04-12T08:23:50.472Z,75.70
2017-04-12T08:24:50.471Z,75.60
2017-04-12T08:25:50.461Z,75.30
2017-04-12T08:26:50.222Z,75.00
2017-04-12T08:27:51.313Z,74.90
2017-04-12T08:28:51.282Z,74.80
2017-04-12T08:29:51.303Z,74.90
2017-04-12T08:30:51.289Z,74.90
2017-04-12T08:31:51.311Z,74.70
2017-04-12T08:32:51.853Z,74.10
2017-04-12T08:33:51.981Z,73.70
2017-04-12T08:34:52.023Z,73.80
2017-04-12T08:35:52.628Z,74.00
2017-04-12T08:36:53.621Z,74.70
2017-04-12T08:37:53.935Z,74.80
2017-04-12T08:38:53.978Z,74.20
2017-04-12T08:39:53.945Z,73.50
2017-04-12T08:40:53.799Z,73.30
2017-04-12T08:41:53.841Z,73.20
2017-04-12T08:42:54.121Z,72.90
2017-04-12T08:43:54.059Z,72.90
2017-04-12T08:44:54.159Z,73.00
2017-04-12T08:45:54.291Z,72.80
2017-04-12T08:46:54.329Z,72.30
2017-04-12T08:47:55.469Z,71.10
2017-04-12T08:48:56.312Z,70.90
2017-04-12T08:49:56.329Z,69.80
2017-04-12T08:50:58.333Z,69.60
2017-04-12T08:51:58.379Z,69.50
2017-04-12T08:52:58.814Z,69.90
2017-04-12T08:53:58.805Z,69.40
2017-04-12T08:54:58.824Z,69.30
2017-04-12T08:55:59.111Z,69.00
2017-04-12T08:56:59.082Z,69.00
2017-04-12T08:57:59.476Z,69.00
2017-04-12T08:58:59.440Z,67.80
2017-04-12T08:59:59.473Z,67.10
2017-04-12T09:00:59.914Z,66.60
2017-04-12T09:01:59.904Z,66.60
2017-04-12T09:03:00.263Z,66.90
2017-04-12T09:04:00.968Z,66.80
2017-04-12T09:05:00.982Z,67.30
2017-04-12T09:06:00.955Z,67.30
2017-04-12T09:07:00.693Z,66.70
2017-04-12T09:08:01.093Z,67.20
2017-04-12T09:09:01.212Z,67.30
2017-04-12T09:10:02.055Z,67.70
2017-04-12T09:11:02.052Z,66.80
2017-04-12T09:12:03.170Z,66.10
2017-04-12T09:13:03.562Z,65.60
2017-04-12T09:14:04.413Z,65.10
2017-04-12T09:15:04.395Z,64.40
2017-04-12T09:16:04.354Z,64.90
2017-04-12T09:17:04.350Z,64.70
2017-04-12T09:18:04.727Z,63.40
2017-04-12T09:19:04.748Z,62.50
2017-04-12T09:20:04.829Z,62.20
2017-04-12T09:21:04.829Z,62.20
2017-04-12T09:22:04.874Z,61.80
2017-04-12T09:23:05.237Z,61.80
2017-04-12T09:24:05.233Z,61.40
2017-04-12T09:25:05.285Z,60.10
2017-04-12T09:26:05.516Z,59.00
2017-04-12T09:27:06.210Z,59.10
2017-04-12T09:28:06.267Z,59.40
2017-04-12T09:29:06.377Z,59.10
2017-04-12T09:30:06.439Z,59.40
2017-04-12T09:31:06.254Z,59.90
2017-04-12T09:32:06.084Z,59.50
2017-04-12T09:33:06.117Z,60.00
2017-04-12T09:34:06.397Z,59.50
2017-04-12T09:35:06.483Z,59.40
2017-04-12T09:36:06.641Z,59.90
2017-04-12T09:37:06.602Z,59.90
2017-04-12T09:38:06.551Z,58.30
2017-04-12T09:39:06.857Z,56.80
2017-04-12T09:40:12.107Z,56.20
2017-04-12T09:41:17.496Z,56.10
2017-04-12T09:42:17.263Z,56.10
2017-04-12T09:43:17.332Z,56.30
2017-04-12T09:44:18.135Z,56.50
2017-04-12T09:45:18.209Z,56.30
2017-04-12T09:46:18.250Z,56.40
2017-04-12T09:47:18.247Z,56.80
2017-04-12T09:48:18.953Z,57.30
2017-04-12T09:49:19.254Z,55.60
2017-04-12T09:50:19.295Z,54.20
2017-04-12T09:51:19.285Z,55.00
2017-04-12T09:52:19.369Z,54.50
2017-04-12T09:53:19.076Z,54.90
2017-04-12T09:54:19.796Z,54.90
2017-04-12T09:55:19.497Z,54.40
2017-04-12T09:56:19.332Z,53.50
2017-04-12T09:57:19.084Z,53.60
2017-04-12T09:58:19.059Z,53.60
2017-04-12T09:59:19.086Z,53.30
2017-04-12T10:00:19.145Z,53.20
2017-04-12T10:01:19.335Z,53.10
2017-04-12T10:02:19.351Z,53.50
2017-04-12T10:03:20.103Z,53.20
2017-04-12T10:04:20.138Z,52.80
2017-04-12T10:05:20.486Z,52.80
2017-04-12T10:06:20.502Z,52.50
2017-04-12T10:07:20.509Z,52.30
2017-04-12T10:08:21.301Z,52.70
2017-04-12T10:09:21.233Z,52.60
2017-04-12T10:10:21.596Z,51.70
2017-04-12T10:11:21.664Z,52.20
2017-04-12T10:12:21.665Z,52.40
2017-04-12T10:13:21.684Z,51.70
2017-04-12T10:14:21.662Z,51.90
2017-04-12T10:15:21.952Z,52.20
2017-04-12T10:16:21.958Z,53.10
2017-04-12T10:17:21.945Z,53.00
2017-04-12T10:18:21.931Z,53.10
2017-04-12T10:19:21.972Z,52.70
2017-04-12T10:20:22.415Z,53.10
2017-04-12T10:21:22.384Z,53.80
2017-04-12T10:22:22.385Z,53.60
2017-04-12T10:23:22.348Z,53.00
2017-04-12T10:24:23.050Z,52.30
2017-04-12T10:25:23.341Z,51.80
2017-04-12T10:26:23.375Z,52.00
2017-04-12T10:27:23.375Z,51.80
2017-04-12T10:28:23.510Z,51.50
2017-04-12T10:29:25.646Z,51.70
2017-04-12T10:30:25.922Z,51.60
2017-04-12T10:31:25.915Z,51.20
2017-04-12T10:32:26.641Z,51.10
2017-04-12T10:33:26.676Z,50.90
2017-04-12T10:34:26.659Z,51.30
2017-04-12T10:35:27.054Z,51.80
2017-04-12T10:36:27.042Z,51.80
2017-04-12T10:37:26.985Z,51.20
2017-04-12T10:38:27.026Z,49.30
2017-04-12T10:39:26.861Z,47.90
2017-04-12T10:40:27.951Z,48.00
2017-04-12T10:41:27.959Z,48.10
2017-04-12T10:42:27.942Z,48.10
2017-04-12T10:43:27.878Z,48.40
2017-04-12T10:44:27.922Z,48.00
2017-04-12T10:45:28.349Z,49.20
2017-04-12T10:46:28.081Z,48.80
2017-04-12T10:47:28.175Z,49.00
2017-04-12T10:48:28.189Z,49.50
2017-04-12T10:49:28.128Z,49.30
2017-04-12T10:50:28.413Z,49.10
2017-04-12T10:51:28.387Z,49.00
2017-04-12T10:52:28.352Z,49.30
2017-04-12T10:53:28.304Z,49.50
2017-04-12T10:54:28.326Z,49.50
2017-04-12T10:55:28.544Z,48.80
2017-04-12T10:56:28.519Z,48.10
2017-04-12T10:57:28.462Z,47.30
2017-04-12T10:58:28.410Z,47.00
2017-04-12T10:59:32.329Z,46.60
2017-04-12T11:00:32.685Z,46.70
2017-04-12T11:01:32.779Z,46.10
2017-04-12T11:02:32.879Z,45.90
2017-04-12T11:03:32.570Z,46.30
2017-04-12T11:04:32.561Z,46.00
2017-04-12T11:05:33.026Z,45.10
2017-04-12T11:06:33.159Z,45.00
2017-04-12T11:07:33.866Z,45.40
2017-04-12T11:08:33.930Z,45.60
2017-04-12T11:09:33.898Z,46.20
2017-04-12T11:10:34.320Z,46.40
2017-04-12T11:11:34.384Z,46.70
2017-04-12T11:12:34.411Z,46.20
2017-04-12T11:13:34.372Z,45.30
2017-04-12T11:14:34.368Z,45.00
2017-04-12T11:15:34.729Z,45.10
2017-04-12T11:16:34.737Z,44.90
2017-04-12T11:17:45.497Z,44.80
2017-04-12T11:18:45.240Z,44.70
2017-04-12T11:19:45.234Z,44.50
2017-04-12T11:20:45.515Z,45.10
2017-04-12T11:21:45.479Z,45.10
2017-04-12T11:22:45.532Z,45.40
2017-04-12T11:23:45.569Z,45.20
2017-04-12T11:24:45.592Z,46.00
2017-04-12T11:25:45.964Z,46.10
2017-04-12T11:26:46.728Z,45.80
2017-04-12T11:27:46.713Z,45.50
2017-04-12T11:28:46.725Z,45.80
2017-04-12T11:29:46.714Z,45.50
2017-04-12T11:30:47.087Z,45.40
2017-04-12T11:31:47.087Z,45.20
2017-04-12T11:34:19.048Z,43.80
2017-04-12T11:35:19.046Z,44.00
2017-04-12T11:36:19.399Z,44.30
2017-04-12T11:37:19.379Z,44.00
2017-04-12T11:38:19.410Z,43.90
2017-04-12T11:39:20.944Z,43.60
2017-04-12T11:40:21.358Z,43.80
2017-04-12T11:41:22.601Z,44.00
2017-04-12T11:42:22.677Z,42.20
2017-04-12T11:43:22.701Z,42.30
2017-04-12T11:44:22.755Z,42.90
2017-04-12T11:45:22.732Z,43.00
2017-04-12T11:46:23.248Z,42.00
2017-04-12T11:47:23.231Z,41.80
2017-04-12T11:48:23.478Z,41.30
2017-04-12T11:49:24.247Z,41.70
2017-04-12T11:50:24.206Z,42.60
2017-04-12T11:51:25.409Z,42.90
2017-04-12T11:52:25.456Z,42.90
2017-04-12T11:53:25.770Z,42.30
2017-04-12T11:54:25.733Z,41.20
2017-04-12T11:55:25.764Z,41.20
2017-04-12T11:56:26.392Z,41.20
2017-04-12T11:57:27.097Z,42.10
2017-04-12T11:58:27.137Z,41.40
2017-04-12T11:59:27.518Z,41.80
2017-04-12T12:00:27.537Z,41.40
2017-04-12T12:01:28.032Z,42.80
2017-04-12T12:02:28.002Z,43.00
2017-04-12T12:03:28.026Z,42.40
2017-04-12T12:04:28.082Z,42.80
2017-04-12T12:05:28.845Z,43.50
2017-04-12T12:06:29.163Z,43.50
2017-04-12T12:07:29.221Z,43.40
2017-04-12T12:08:30.034Z,43.80
2017-04-12T12:09:30.001Z,43.50
2017-04-12T12:10:30.048Z,43.10
2017-04-12T12:11:30.879Z,42.50
2017-04-12T12:12:30.905Z,41.90
2017-04-12T12:13:31.664Z,41.10
2017-04-12T12:14:31.748Z,40.80
2017-04-12T12:15:31.756Z,41.00
2017-04-12T12:16:32.030Z,41.80
2017-04-12T12:17:32.589Z,42.30
2017-04-12T12:18:32.677Z,42.50
2017-04-12T12:19:33.458Z,42.40
2017-04-12T12:20:33.501Z,42.40
2017-04-12T12:21:34.640Z,41.80
2017-04-12T12:22:35.661Z,40.50
2017-04-12T12:23:36.128Z,40.70
2017-04-12T12:24:36.161Z,40.80
2017-04-12T12:25:36.225Z,41.00
2017-04-12T12:26:36.574Z,40.80
2017-04-12T12:27:36.784Z,40.80
2017-04-12T12:28:36.753Z,40.90
2017-04-12T12:29:36.757Z,41.20
2017-04-12T12:30:36.776Z,41.60
2017-04-12T12:31:36.855Z,41.50
2017-04-12T12:32:36.855Z,41.40
2017-04-12T12:33:37.531Z,41.60
2017-04-12T12:34:37.796Z,41.60
2017-04-12T12:35:37.828Z,41.70
2017-04-12T12:36:38.013Z,41.90
2017-04-12T12:37:38.155Z,42.00
2017-04-12T12:38:38.313Z,42.50
2017-04-12T12:39:38.417Z,42.20
2017-04-12T12:40:38.472Z,41.60
2017-04-12T12:41:38.943Z,41.60
2017-04-12T12:42:38.917Z,41.90
2017-04-12T12:43:38.919Z,42.30
2017-04-12T12:44:38.939Z,42.50
2017-04-12T12:45:39.003Z,42.40
2017-04-12T12:46:39.692Z,42.50
2017-04-12T12:47:39.702Z,42.60
2017-04-12T12:48:39.710Z,42.50
2017-04-12T12:49:39.695Z,42.00
2017-04-12T12:50:39.686Z,42.10
2017-04-12T12:51:40.011Z,42.30
2017-04-12T12:52:39.998Z,42.70
2017-04-12T12:53:40.016Z,42.60
2017-04-12T12:54:39.988Z,42.50
2017-04-12T12:55:39.996Z,42.70
2017-04-12T12:56:40.355Z,42.90
2017-04-12T12:57:40.328Z,43.00
2017-04-12T12:58:40.297Z,42.80